Time;durP1;ratioP1;P1;durP2;ratioP2;P2;SDS_P1;SDS_P2;PMS_P1;PMS_P2;Temp;Humidity;BMP_temperature;BMP_pressure;BME280_temperature;BME280_humidity;BME280_pressure;Samples;Min_cycle;Max_cycle;Signal;HPM_P1;HPM_P2
2022/02/13 07:04:12;;;;;;;5.38;4.03;;;;;;;;;;6126498;22;21092;-85
2022/02/13 07:06:37;;;;;;;4.25;3.42;;;;;;;;;;6186450;23;20380;-87
2022/02/13 07:09:03;;;;;;;6.47;3.90;;;;;;;;;;6185861;23;20360;-85
2022/02/13 07:11:28;;;;;;;7.35;4.95;;;;;;;;;;6184573;23;20016;-85
2022/02/13 07:13:55;;;;;;;6.38;4.60;;;;;;;;;;6185893;23;20424;-85
2022/02/13 07:16:20;;;;;;;5.72;4.35;;;;;;;;;;6187389;23;20016;-84
2022/02/13 07:18:46;;;;;;;7.75;4.80;;;;;;;;;;6187483;23;20328;-85
2022/02/13 09:55:51;;;;;;;8.60;5.00;;;;;;;;;;6169923;23;20013;-84
2022/02/13 09:58:17;;;;;;;6.40;3.85;;;;;;;;;;6186603;23;20398;-84
2022/02/13 10:00:53;;;;;;;5.40;4.07;;;;;;;;;;6186520;23;20055;-83
2022/02/13 10:03:28;;;;;;;5.75;3.70;;;;;;;;;;6186377;23;20005;-84
2022/02/13 10:06:02;;;;;;;6.50;3.67;;;;;;;;;;6186616;23;20071;-84
2022/02/13 10:08:36;;;;;;;5.32;4.00;;;;;;;;;;6186718;23;20439;-83
2022/02/13 10:11:10;;;;;;;4.00;3.10;;;;;;;;;;6186545;23;20005;-84
2022/02/13 10:13:53;;;;;;;5.63;3.38;;;;;;;;;;6186295;23;20008;-85
2022/02/13 10:16:24;;;;;;;3.60;2.90;;;;;;;;;;6186561;23;20009;-84
2022/02/13 10:18:51;;;;;;;3.22;2.92;;;;;;;;;;6186215;23;20324;-84
2022/02/13 10:21:42;;;;;;;3.50;2.70;;;;;;;;;;6186353;23;20421;-84
2022/02/13 10:24:22;;;;;;;3.53;2.58;;;;;;;;;;6186409;23;20005;-84
2022/02/13 10:26:56;;;;;;;3.20;2.90;;;;;;;;;;6186447;23;20416;-85
2022/02/13 10:29:30;;;;;;;4.00;2.92;;;;;;;;;;6186625;23;20001;-85
2022/02/13 10:32:14;;;;;;;4.10;3.10;;;;;;;;;;6186242;23;20421;-85
2022/02/13 10:34:57;;;;;;;3.45;3.15;;;;;;;;;;6186263;23;20072;-86
2022/02/13 10:37:44;;;;;;;4.90;3.60;;;;;;;;;;6186261;23;20009;-85
2022/02/13 10:40:25;;;;;;;3.90;3.60;;;;;;;;;;6159962;23;20044;-84
2022/02/13 10:43:05;;;;;;;3.53;3.08;;;;;;;;;;6186182;23;20005;-85
2022/02/13 10:45:32;;;;;;;4.60;3.83;;;;;;;;;;6186250;23;20005;-84
2022/02/13 10:48:01;;;;;;;3.95;3.47;;;;;;;;;;6185891;23;20005;-86
2022/02/13 10:50:28;;;;;;;3.97;3.65;;;;;;;;;;6186145;23;20005;-86
2022/02/13 10:52:58;;;;;;;3.58;3.28;;;;;;;;;;6186289;23;20005;-86
2022/02/13 10:55:27;;;;;;;3.90;2.80;;;;;;;;;;6185942;23;20020;-86
2022/02/13 10:57:54;;;;;;;3.20;2.90;;;;;;;;;;6185291;23;20052;-87
2022/02/13 11:00:20;;;;;;;3.97;2.92;;;;;;;;;;6187455;23;20436;-90
2022/02/13 11:02:46;;;;;;;3.80;2.85;;;;;;;;;;6187288;23;19997;-84
2022/02/13 11:05:12;;;;;;;4.63;2.90;;;;;;;;;;6186127;23;20011;-86
2022/02/13 11:07:43;;;;;;;4.70;3.67;;;;;;;;;;6188363;23;20033;-85
2022/02/13 11:10:13;;;;;;;5.78;3.92;;;;;;;;;;6186109;23;20084;-85
2022/02/13 11:12:39;;;;;;;5.50;3.47;;;;;;;;;;6185933;23;20032;-85
2022/02/13 11:15:20;;;;;;;6.35;3.50;;;;;;;;;;6185731;23;20408;-87
2022/02/13 11:17:48;;;;;;;5.47;3.53;;;;;;;;;;6184529;23;20016;-84
2022/02/13 11:20:16;;;;;;;5.63;2.95;;;;;;;;;;6186014;23;20001;-85
2022/02/13 11:22:43;;;;;;;5.35;3.20;;;;;;;;;;6184798;23;20393;-83
2022/02/13 11:25:10;;;;;;;3.70;3.40;;;;;;;;;;6185902;23;20005;-87
2022/02/13 11:27:58;;;;;;;5.70;3.83;;;;;;;;;;6186010;23;20420;-85
2022/02/13 11:30:42;;;;;;;4.22;3.50;;;;;;;;;;6186096;23;20128;-85
2022/02/13 11:33:28;;;;;;;5.22;4.10;;;;;;;;;;6186051;23;20005;-88
2022/02/13 11:36:03;;;;;;;4.88;4.32;;;;;;;;;;6180322;23;20011;-86
2022/02/13 11:38:40;;;;;;;5.75;3.75;;;;;;;;;;6190783;23;20052;-87
2022/02/13 11:41:07;;;;;;;4.63;3.53;;;;;;;;;;6184257;23;20005;-87
2022/02/13 11:43:45;;;;;;;4.28;3.42;;;;;;;;;;6185883;23;20005;-87
2022/02/13 11:46:35;;;;;;;8.68;3.38;;;;;;;;;;6185997;23;20005;-86
2022/02/13 11:49:03;;;;;;;3.67;3.38;;;;;;;;;;6186600;23;20016;-86
2022/02/13 11:52:00;;;;;;;5.88;3.10;;;;;;;;;;6185994;23;20496;-86
2022/02/13 11:54:37;;;;;;;4.30;3.70;;;;;;;;;;6179255;23;20461;-86
2022/02/13 11:57:10;;;;;;;5.38;3.30;;;;;;;;;;6186293;23;20035;-86
2022/02/13 12:00:06;;;;;;;5.55;3.40;;;;;;;;;;6184450;23;20032;-86
2022/02/13 12:02:34;;;;;;;4.00;3.60;;;;;;;;;;6185714;23;20012;-87
2022/02/13 12:05:05;;;;;;;4.82;3.80;;;;;;;;;;6187652;23;20009;-87
2022/02/13 12:07:37;;;;;;;5.80;3.83;;;;;;;;;;6188023;23;19998;-87
2022/02/13 12:10:08;;;;;;;5.10;3.88;;;;;;;;;;6187775;23;20008;-86
2022/02/13 12:12:34;;;;;;;5.20;4.13;;;;;;;;;;6186158;23;20009;-88
2022/02/13 12:14:59;;;;;;;6.10;4.25;;;;;;;;;;6187462;23;20005;-86
2022/02/13 12:17:26;;;;;;;4.95;4.50;;;;;;;;;;6186287;23;20032;-85
2022/02/13 12:20:04;;;;;;;6.03;4.13;;;;;;;;;;6189030;23;20004;-86
2022/02/13 12:22:30;;;;;;;5.03;4.47;;;;;;;;;;6187744;23;19998;-87
2022/02/13 12:24:58;;;;;;;4.63;4.00;;;;;;;;;;6187681;23;20428;-87
2022/02/13 12:27:24;;;;;;;5.20;4.22;;;;;;;;;;6188020;23;20005;-88
2022/02/13 12:29:52;;;;;;;4.28;3.80;;;;;;;;;;6186264;23;20361;-86
2022/02/13 12:32:18;;;;;;;5.20;3.75;;;;;;;;;;6186045;23;20029;-88
2022/02/13 12:34:49;;;;;;;4.35;3.90;;;;;;;;;;6187906;23;20028;-84
2022/02/13 12:37:15;;;;;;;6.78;4.43;;;;;;;;;;6187342;23;20001;-87
2022/02/13 12:39:40;;;;;;;4.72;4.07;;;;;;;;;;6187747;23;20005;-87
2022/02/13 12:42:06;;;;;;;4.90;4.13;;;;;;;;;;6187559;23;20409;-86
2022/02/13 12:44:53;;;;;;;4.47;4.07;;;;;;;;;;6187346;23;20048;-87
2022/02/13 12:47:28;;;;;;;6.15;4.32;;;;;;;;;;6185834;23;20108;-86
2022/02/13 12:49:59;;;;;;;4.95;4.43;;;;;;;;;;6187338;23;20321;-86
2022/02/13 12:52:24;;;;;;;6.07;4.97;;;;;;;;;;6187503;23;20134;-86
2022/02/13 12:54:50;;;;;;;4.63;4.20;;;;;;;;;;6186548;23;20021;-86
2022/02/13 12:57:19;;;;;;;6.22;4.82;;;;;;;;;;6186006;23;20072;-86
2022/02/13 12:59:45;;;;;;;;;;;;;;;;;;6185576;23;20131;-87
2022/02/13 13:02:22;;;;;;;4.85;3.88;;;;;;;;;;6185510;23;19935;-86
2022/02/13 13:04:49;;;;;;;4.43;3.85;;;;;;;;;;6187018;23;20047;-85
2022/02/13 13:07:19;;;;;;;6.05;3.63;;;;;;;;;;6187156;23;20005;-86
2022/02/13 13:09:46;;;;;;;3.95;3.55;;;;;;;;;;6187003;23;20498;-86
2022/02/13 13:12:16;;;;;;;4.93;4.07;;;;;;;;;;6185470;23;20031;-86
2022/02/13 13:14:42;;;;;;;7.95;4.50;;;;;;;;;;6185838;23;20425;-86
2022/02/13 13:17:09;;;;;;;4.93;3.78;;;;;;;;;;6185522;23;20001;-87
2022/02/13 13:19:38;;;;;;;7.78;3.78;;;;;;;;;;6185938;23;20001;-86
2022/02/13 13:22:23;;;;;;;4.93;3.95;;;;;;;;;;6185593;23;20333;-86
2022/02/13 13:24:51;;;;;;;5.45;4.07;;;;;;;;;;6185979;23;20009;-87
2022/02/13 13:27:24;;;;;;;5.80;4.28;;;;;;;;;;6184163;23;20001;-87
2022/02/13 13:29:49;;;;;;;4.72;4.28;;;;;;;;;;6186156;23;20060;-86
2022/02/13 13:32:19;;;;;;;5.65;4.63;;;;;;;;;;6183634;23;20001;-87
2022/02/13 13:34:45;;;;;;;7.97;4.80;;;;;;;;;;6185419;23;20008;-87
2022/02/13 13:37:43;;;;;;;6.03;4.78;;;;;;;;;;6184099;23;20009;-87
2022/02/13 13:40:21;;;;;;;7.60;6.07;;;;;;;;;;6185389;23;20132;-87
2022/02/13 13:43:10;;;;;;;8.15;5.40;;;;;;;;;;6185481;23;20029;-87
2022/02/13 13:45:39;;;;;;;5.63;4.47;;;;;;;;;;6183775;23;20012;-87
2022/02/13 13:48:12;;;;;;;6.03;4.28;;;;;;;;;;6185273;23;20012;-87
2022/02/13 13:50:40;;;;;;;5.13;4.22;;;;;;;;;;6185839;23;20079;-87
2022/02/13 13:53:08;;;;;;;5.85;4.60;;;;;;;;;;6185273;23;20005;-87
2022/02/13 13:55:34;;;;;;;5.03;4.03;;;;;;;;;;6186381;23;20024;-86
2022/02/13 13:57:59;;;;;;;6.03;3.97;;;;;;;;;;6185050;23;20013;-87
2022/02/13 14:00:25;;;;;;;7.25;4.68;;;;;;;;;;6186942;23;20374;-86
2022/02/13 14:02:55;;;;;;;4.85;4.03;;;;;;;;;;6186937;23;20008;-86
2022/02/13 14:05:21;;;;;;;5.32;4.38;;;;;;;;;;6185323;23;20000;-86
2022/02/13 14:07:47;;;;;;;6.07;4.95;;;;;;;;;;6185107;23;20040;-87
2022/02/13 14:10:12;;;;;;;5.78;4.85;;;;;;;;;;6187562;23;19997;-86
2022/02/13 17:25:27;;;;;;;7.32;5.22;;;;;;;;;;6148355;23;20103;-87
2022/02/13 17:27:54;;;;;;;9.25;6.32;;;;;;;;;;6132164;23;20345;-86
2022/02/13 17:30:20;;;;;;;8.98;6.47;;;;;;;;;;6157541;23;20008;-87
2022/02/13 17:32:45;;;;;;;13.15;8.07;;;;;;;;;;6157629;23;20336;-84
2022/02/13 17:35:10;;;;;;;11.02;6.88;;;;;;;;;;6156477;23;20009;-84
2022/02/13 17:37:40;;;;;;;9.05;6.18;;;;;;;;;;6157203;23;20002;-86
2022/02/13 17:40:06;;;;;;;9.57;7.38;;;;;;;;;;6181540;23;20364;-85
2022/02/13 17:42:34;;;;;;;7.65;6.35;;;;;;;;;;6156749;23;20453;-85
2022/02/13 17:44:59;;;;;;;6.00;5.32;;;;;;;;;;6157332;23;20006;-85
2022/02/13 17:47:25;;;;;;;6.88;5.85;;;;;;;;;;6155476;23;20036;-86
2022/02/13 17:49:51;;;;;;;6.30;5.50;;;;;;;;;;6155212;23;20080;-86
2022/02/13 17:52:16;;;;;;;8.73;5.85;;;;;;;;;;6156648;23;20024;-86
2022/02/13 17:54:42;;;;;;;6.32;5.22;;;;;;;;;;6179920;23;20080;-86
2022/02/13 17:57:07;;;;;;;12.00;7.97;;;;;;;;;;6155183;23;20005;-86
2022/02/13 17:59:35;;;;;;;10.10;6.32;;;;;;;;;;6154874;23;20001;-85
2022/02/13 18:02:01;;;;;;;8.30;5.60;;;;;;;;;;6156312;23;20006;-86
2022/02/13 18:04:31;;;;;;;6.95;5.50;;;;;;;;;;6157214;23;20051;-85
2022/02/13 18:06:56;;;;;;;;;;;;;;;;;;6155670;23;20016;-88
2022/02/13 18:09:22;;;;;;;14.48;9.85;;;;;;;;;;6156704;23;19908;-87
2022/02/13 18:11:47;;;;;;;12.27;8.68;;;;;;;;;;6181242;23;20002;-87
2022/02/13 18:14:12;;;;;;;9.18;6.80;;;;;;;;;;6154838;23;20072;-86
2022/02/13 18:16:38;;;;;;;7.82;6.72;;;;;;;;;;6159457;23;20005;-87
2022/02/13 18:19:03;;;;;;;8.07;6.22;;;;;;;;;;6156366;23;20001;-87
2022/02/13 18:21:29;;;;;;;7.95;5.78;;;;;;;;;;6156527;23;20420;-86
2022/02/13 18:23:55;;;;;;;7.95;6.88;;;;;;;;;;6157145;23;20017;-86
2022/02/13 18:26:22;;;;;;;9.65;6.90;;;;;;;;;;6154689;23;20023;-86
2022/02/13 18:28:47;;;;;;;9.98;7.05;;;;;;;;;;6154717;23;20017;-86
2022/02/13 18:31:14;;;;;;;10.35;7.80;;;;;;;;;;6156315;23;20014;-87
2022/02/13 18:33:40;;;;;;;10.10;8.20;;;;;;;;;;6154971;23;20021;-86
2022/02/13 18:36:05;;;;;;;9.00;6.63;;;;;;;;;;6156555;23;20009;-88
2022/02/13 18:38:31;;;;;;;7.43;5.82;;;;;;;;;;6154811;23;20329;-85
2022/02/13 18:40:57;;;;;;;6.32;4.70;;;;;;;;;;6156513;23;20068;-87
2022/02/13 18:43:23;;;;;;;7.82;5.57;;;;;;;;;;6179772;23;20005;-88
2022/02/13 18:45:51;;;;;;;10.82;6.40;;;;;;;;;;6179764;23;20380;-86
2022/02/13 18:48:16;;;;;;;7.32;5.38;;;;;;;;;;6154944;23;20052;-87
2022/02/13 18:50:43;;;;;;;9.15;6.30;;;;;;;;;;6180384;23;20005;-86
2022/02/13 18:53:09;;;;;;;7.82;6.05;;;;;;;;;;6179334;23;20374;-87
2022/02/13 18:55:34;;;;;;;14.25;8.73;;;;;;;;;;6156206;23;20043;-87
2022/02/13 18:58:01;;;;;;;11.85;7.28;;;;;;;;;;6154932;23;20009;-86
2022/02/13 19:00:27;;;;;;;16.38;9.20;;;;;;;;;;6156247;23;20001;-86
2022/02/13 19:02:53;;;;;;;10.07;6.32;;;;;;;;;;6156177;23;20005;-85
2022/02/13 19:05:19;;;;;;;12.57;7.35;;;;;;;;;;6156217;23;20031;-86
2022/02/13 19:07:44;;;;;;;10.52;6.93;;;;;;;;;;6156313;23;20385;-85
2022/02/13 19:10:10;;;;;;;7.45;5.95;;;;;;;;;;6179525;23;20010;-86
2022/02/13 19:12:35;;;;;;;6.43;5.72;;;;;;;;;;6155551;23;20002;-86
2022/02/13 19:15:02;;;;;;;11.40;6.00;;;;;;;;;;6156203;23;20010;-86
2022/02/13 19:17:27;;;;;;;7.10;5.97;;;;;;;;;;6156562;23;20002;-85
2022/02/13 19:19:53;;;;;;;8.88;5.68;;;;;;;;;;6158764;23;20032;-86
2022/02/13 19:22:18;;;;;;;9.05;5.93;;;;;;;;;;6154420;23;20093;-86
2022/02/13 19:24:45;;;;;;;8.90;5.63;;;;;;;;;;6155359;23;20393;-86
2022/02/13 19:29:54;;;;;;;6.80;5.35;;;;;;;;;;6185931;23;20039;-87
2022/02/13 19:32:20;;;;;;;8.07;5.30;;;;;;;;;;6184188;23;20028;-86
2022/02/13 19:34:45;;;;;;;6.97;5.72;;;;;;;;;;6159796;23;20016;-88
2022/02/13 19:37:12;;;;;;;8.43;6.03;;;;;;;;;;6159666;23;20009;-86
2022/02/13 19:39:38;;;;;;;8.43;6.40;;;;;;;;;;6185734;23;20012;-87
2022/02/13 19:42:04;;;;;;;9.32;6.38;;;;;;;;;;6159356;23;20080;-85
2022/02/13 19:44:32;;;;;;;11.10;6.28;;;;;;;;;;6185876;23;20005;-87
2022/02/13 19:47:00;;;;;;;14.95;9.23;;;;;;;;;;6159529;23;20008;-87
2022/02/13 19:49:26;;;;;;;11.90;8.05;;;;;;;;;;6159641;23;20027;-86
2022/02/13 19:51:51;;;;;;;8.85;6.22;;;;;;;;;;6185748;23;20424;-86
2022/02/13 19:54:17;;;;;;;10.45;8.80;;;;;;;;;;6185671;23;20005;-86
2022/02/13 19:56:44;;;;;;;9.80;8.27;;;;;;;;;;6185882;23;20326;-87
2022/02/13 19:59:09;;;;;;;10.18;8.18;;;;;;;;;;6159197;23;20484;-87
2022/02/13 20:01:35;;;;;;;12.23;8.57;;;;;;;;;;6185997;23;20040;-86
2022/02/13 20:04:02;;;;;;;11.57;8.13;;;;;;;;;;6185849;23;20039;-87
2022/02/13 20:06:27;;;;;;;13.10;7.57;;;;;;;;;;6159690;23;20036;-87
2022/02/13 20:08:53;;;;;;;10.02;8.00;;;;;;;;;;6185754;23;20321;-87
2022/02/13 20:11:18;;;;;;;14.65;9.18;;;;;;;;;;6185813;23;20005;-88
2022/02/13 20:13:44;;;;;;;11.77;8.00;;;;;;;;;;6159382;23;20009;-88
2022/02/13 20:16:09;;;;;;;10.27;7.53;;;;;;;;;;6159525;23;20365;-87
2022/02/13 20:18:37;;;;;;;13.52;8.73;;;;;;;;;;6185771;23;20001;-86
2022/02/13 20:21:02;;;;;;;12.73;8.30;;;;;;;;;;6159257;23;20009;-87
2022/02/13 20:23:28;;;;;;;10.70;7.60;;;;;;;;;;6186535;23;20009;-87
2022/02/13 20:25:54;;;;;;;10.50;6.88;;;;;;;;;;6160648;23;20345;-87
2022/02/13 20:28:19;;;;;;;11.05;7.97;;;;;;;;;;6161335;23;20081;-87
2022/02/13 20:30:45;;;;;;;13.82;8.20;;;;;;;;;;6161092;23;20001;-87
2022/02/13 20:33:11;;;;;;;13.93;9.27;;;;;;;;;;6161024;23;20005;-87
2022/02/13 20:35:37;;;;;;;19.38;11.38;;;;;;;;;;6160782;23;20113;-87
2022/02/13 20:38:02;;;;;;;16.02;11.23;;;;;;;;;;6161153;23;20017;-87
2022/02/13 20:40:27;;;;;;;20.50;13.13;;;;;;;;;;6187377;23;20425;-87
2022/02/13 20:42:58;;;;;;;17.65;10.95;;;;;;;;;;6161710;23;20000;-87
2022/02/13 20:45:25;;;;;;;20.77;13.32;;;;;;;;;;6185640;23;20372;-87
2022/02/13 20:47:50;;;;;;;17.35;10.35;;;;;;;;;;6161066;23;20005;-87
2022/02/13 20:50:20;;;;;;;12.77;8.65;;;;;;;;;;6187446;23;20373;-88
2022/02/13 20:52:46;;;;;;;20.35;16.90;;;;;;;;;;6187003;23;20005;-87
2022/02/13 20:55:12;;;;;;;17.80;12.07;;;;;;;;;;6160602;23;20017;-88
2022/02/13 20:57:38;;;;;;;11.07;8.75;;;;;;;;;;6161771;23;20007;-87
2022/02/13 21:00:06;;;;;;;16.30;10.85;;;;;;;;;;6160923;23;20001;-87
2022/02/13 21:02:34;;;;;;;15.02;10.40;;;;;;;;;;6160903;23;20005;-88
2022/02/13 21:04:59;;;;;;;16.92;10.80;;;;;;;;;;6160959;23;20011;-88
2022/02/13 21:07:24;;;;;;;13.98;10.05;;;;;;;;;;6187304;23;20005;-90
2022/02/13 21:09:52;;;;;;;17.20;10.93;;;;;;;;;;6162340;23;20016;-88
2022/02/13 21:12:20;;;;;;;17.50;11.57;;;;;;;;;;6160932;23;20001;-90
2022/02/13 21:14:46;;;;;;;17.13;11.15;;;;;;;;;;6160761;23;20012;-88
2022/02/13 21:17:11;;;;;;;18.60;11.45;;;;;;;;;;6187370;23;20491;-88
2022/02/13 21:19:37;;;;;;;16.92;12.45;;;;;;;;;;6160859;23;20417;-88
2022/02/13 21:22:02;;;;;;;15.88;10.85;;;;;;;;;;6186995;23;20302;-88
2022/02/13 21:24:28;;;;;;;12.85;8.98;;;;;;;;;;6160734;23;20012;-88
2022/02/13 21:26:54;;;;;;;14.75;9.63;;;;;;;;;;6155473;23;20025;-87
2022/02/13 21:29:21;;;;;;;14.45;9.63;;;;;;;;;;6155568;23;20036;-86
2022/02/13 21:31:46;;;;;;;13.27;9.90;;;;;;;;;;6157031;23;20409;-87
2022/02/13 21:34:12;;;;;;;13.32;9.75;;;;;;;;;;6157020;23;20006;-86
2022/02/13 21:36:38;;;;;;;18.83;11.65;;;;;;;;;;6155646;23;20085;-86
2022/02/13 21:39:03;;;;;;;17.77;11.77;;;;;;;;;;6155209;23;20088;-86
2022/02/13 21:41:29;;;;;;;16.00;11.40;;;;;;;;;;6156718;23;20002;-87
2022/02/13 21:43:54;;;;;;;16.00;10.70;;;;;;;;;;6156641;23;20010;-87
2022/02/13 21:46:19;;;;;;;18.50;11.60;;;;;;;;;;6156780;23;20029;-85
2022/02/13 21:48:45;;;;;;;20.80;11.88;;;;;;;;;;6156847;23;20002;-86
2022/02/13 21:51:10;;;;;;;18.65;12.25;;;;;;;;;;6156602;23;20002;-85
2022/02/13 21:53:36;;;;;;;14.10;9.98;;;;;;;;;;6156956;23;20373;-85
2022/02/13 21:56:01;;;;;;;16.90;12.30;;;;;;;;;;6156475;23;20015;-86
2022/02/13 21:58:27;;;;;;;17.00;11.18;;;;;;;;;;6155188;23;20006;-86
2022/02/13 22:00:52;;;;;;;18.38;11.40;;;;;;;;;;6155824;23;20002;-85
2022/02/13 22:03:18;;;;;;;18.45;11.60;;;;;;;;;;6155123;23;20052;-86
2022/02/13 22:05:43;;;;;;;17.98;11.63;;;;;;;;;;6154777;23;20443;-85
2022/02/13 22:08:09;;;;;;;17.17;11.85;;;;;;;;;;6156649;23;20006;-86
2022/02/13 22:10:34;;;;;;;18.27;11.32;;;;;;;;;;6155244;23;20041;-86
2022/02/13 22:12:59;;;;;;;17.33;11.50;;;;;;;;;;6156609;23;20057;-86
2022/02/13 22:15:25;;;;;;;18.35;12.10;;;;;;;;;;6154854;23;20013;-86
2022/02/13 22:17:51;;;;;;;17.45;12.38;;;;;;;;;;6154845;23;20052;-85
2022/02/13 22:20:17;;;;;;;17.13;11.48;;;;;;;;;;6156604;23;20332;-85
2022/02/13 22:22:42;;;;;;;16.27;11.95;;;;;;;;;;6156311;23;20028;-86
2022/02/13 22:25:08;;;;;;;17.92;11.90;;;;;;;;;;6154822;23;20075;-87
2022/02/13 22:27:33;;;;;;;16.23;12.07;;;;;;;;;;6154966;23;20045;-86
2022/02/13 22:29:59;;;;;;;17.30;11.70;;;;;;;;;;6154668;23;20434;-86
2022/02/13 22:32:24;;;;;;;15.95;11.40;;;;;;;;;;6156152;23;20037;-86
2022/02/13 22:34:50;;;;;;;16.92;11.95;;;;;;;;;;6156378;23;20044;-86
2022/02/13 22:37:15;;;;;;;22.27;12.32;;;;;;;;;;6156294;23;20325;-85
2022/02/13 22:39:41;;;;;;;18.85;12.15;;;;;;;;;;6156357;23;19998;-86
2022/02/13 22:42:07;;;;;;;20.45;11.10;;;;;;;;;;6154547;23;20330;-85
2022/02/13 22:44:33;;;;;;;21.15;12.95;;;;;;;;;;6156353;23;20001;-85
2022/02/13 22:46:58;;;;;;;18.17;12.20;;;;;;;;;;6154690;23;20024;-85
2022/02/13 22:49:24;;;;;;;15.80;11.07;;;;;;;;;;6156323;23;20002;-86
2022/02/13 22:51:50;;;;;;;18.92;12.10;;;;;;;;;;6154705;23;20006;-86
2022/02/13 22:54:15;;;;;;;18.60;11.95;;;;;;;;;;6154756;23;20002;-88
2022/02/13 22:56:41;;;;;;;16.65;11.20;;;;;;;;;;6155436;23;20005;-87
